Impacts TAF Board
For situational awareness. Not to be used for flight planning purposes.
IDs:

KPHX - Phoenix/Sky Harbor, AZ, US

Issued at 2332 UTC 23 May 2019
Updated at 0154 UTC 24 May 2019
Potential Impact None Slight Moderate High
Time0151Z 24/02Z 24/03Z 24/04Z 24/05Z 24/06Z 24/07Z 24/08Z 24/09Z 24/10Z 24/11Z 24/12Z 24/13Z 24/14Z>>
Type OBS PRVL PRVL PRVL PRVL PRVL PRVL PRVL PRVL PRVL PRVL PRVL PRVL PRVL
VIS 10 >6 >6 >6 >6 >6 >6 >6 >6 >6 >6 >6 >6 >6
CIG -- -- -- -- -- -- -- -- -- -- -- -- -- --
Cover FEW SKC SKC SKC SKC SKC SKC SKC SKC SKC SKC SKC SKC SKC
FltCat VFR VFR VFR VFR VFR VFR VFR VFR VFR VFR VFR VFR VFR VFR
WX -- -- -- -- -- -- -- -- -- -- -- -- -- --
WDir VRB 290 290 290 290 60 60 60 60 60 60 60 60 60
WSpd 3 5 5 5 5 4 4 4 4 4 4 4 4 4
WGst -- -- -- -- -- -- -- -- -- -- -- -- -- --
Raw TAF
KPHX 232332Z 2400/2506 29005KT P6SM SKC
  FM240600 06004KT P6SM SKC
  FM242100 23006KT P6SM SKC


Raw METAR
KPHX 240151Z VRB03KT 10SM FEW090 FEW270 23/01 A2989 RMK AO2 SLP112 T02330011
KPHX 240051Z 28004KT 10SM FEW090 24/01 A2990 RMK AO2 SLP113 T02390011
KPHX 232351Z VRB03KT 10SM FEW090 24/01 A2991 RMK AO2 SLP119 T02390011 10239 20189 56015
KPHX 232251Z VRB04KT 10SM SCT090 23/02 A2993 RMK AO2 SLP124 T02330017

METAR Board
Radar Display
Forecast Discussion
For situational awareness. Not to be used for flight planning purposes.